Time;durP1;ratioP1;P1;durP2;ratioP2;P2;SDS_P1;SDS_P2;PMS_P1;PMS_P2;Temp;Humidity;BMP_temperature;BMP_pressure;BME280_temperature;BME280_humidity;BME280_pressure;Samples;Min_cycle;Max_cycle;Signal;HPM_P1;HPM_P2
2020/12/20 00:00:36;;;;;;;12.68;6.75;;;7.40;87.00;;;;;;5108772;28;20167;-82
2020/12/20 00:03:02;;;;;;;19.23;7.18;;;7.40;87.10;;;;;;5108077;28;20175;-83
2020/12/20 00:05:28;;;;;;;22.27;8.02;;;7.30;87.80;;;;;;5107682;28;20194;-83
2020/12/20 00:07:54;;;;;;;17.30;6.73;;;7.30;87.80;;;;;;5108198;28;20201;-83
2020/12/20 00:10:21;;;;;;;12.88;6.43;;;7.40;87.80;;;;;;5107728;28;20409;-82
2020/12/20 00:12:47;;;;;;;12.25;7.28;;;7.40;88.00;;;;;;5108082;28;20685;-84
2020/12/20 00:15:15;;;;;;;14.77;7.78;;;7.40;88.30;;;;;;5107330;28;20182;-84
2020/12/20 00:17:48;;;;;;;16.80;6.85;;;7.40;88.10;;;;;;5106847;28;20215;-84
2020/12/20 00:20:14;;;;;;;17.45;7.32;;;7.40;88.40;;;;;;5106725;28;20179;-84
2020/12/20 00:22:40;;;;;;;17.03;8.67;;;7.40;87.60;;;;;;5107649;28;20175;-84
2020/12/20 00:25:05;;;;;;;15.43;8.67;;;7.50;88.00;;;;;;5107202;28;20429;-84
2020/12/20 00:27:31;;;;;;;12.03;7.53;;;7.50;87.80;;;;;;5108562;28;20421;-84
2020/12/20 00:29:57;;;;;;;13.50;7.13;;;7.60;87.30;;;;;;5107720;28;20167;-82
2020/12/20 00:32:23;;;;;;;17.13;7.47;;;7.60;87.30;;;;;;5108171;28;20412;-84
2020/12/20 00:34:49;;;;;;;13.35;7.10;;;7.60;87.00;;;;;;5106963;28;20421;-83
2020/12/20 00:37:14;;;;;;;11.57;7.30;;;7.60;87.00;;;;;;5106352;28;20197;-83
2020/12/20 00:39:40;;;;;;;17.63;6.47;;;7.70;87.10;;;;;;5107241;28;20412;-84
2020/12/20 00:42:07;;;;;;;16.80;6.70;;;7.70;87.00;;;;;;5106914;28;20405;-84
2020/12/20 00:44:34;;;;;;;14.55;7.60;;;7.80;86.60;;;;;;5107243;28;20431;-83
2020/12/20 00:47:01;;;;;;;18.20;8.00;;;7.70;86.60;;;;;;5107617;28;20526;-84
2020/12/20 00:49:28;;;;;;;11.52;6.57;;;7.60;86.00;;;;;;5105760;28;20674;-83
2020/12/20 00:51:59;;;;;;;11.43;6.97;;;7.70;86.30;;;;;;5107037;28;20566;-83
2020/12/20 00:54:28;;;;;;;11.93;7.25;;;7.80;86.20;;;;;;5107759;28;20667;-83
2020/12/20 00:56:54;;;;;;;12.07;6.80;;;7.80;86.00;;;;;;5107236;28;20195;-83
2020/12/20 00:59:20;;;;;;;12.70;6.55;;;7.80;85.50;;;;;;5106420;28;20186;-84
2020/12/20 01:01:46;;;;;;;10.32;6.32;;;7.80;85.90;;;;;;5106958;28;20225;-84
2020/12/20 01:04:12;;;;;;;15.50;7.07;;;7.80;85.60;;;;;;5106429;28;20172;-83
2020/12/20 01:06:38;;;;;;;13.43;7.32;;;7.70;85.60;;;;;;5106185;28;20519;-84
2020/12/20 01:09:05;;;;;;;12.40;6.80;;;7.70;85.30;;;;;;5106056;28;20678;-83
2020/12/20 01:11:31;;;;;;;17.75;7.85;;;7.80;85.30;;;;;;5106141;28;20199;-84
2020/12/20 01:13:58;;;;;;;12.63;6.82;;;7.80;85.80;;;;;;5105581;28;20186;-84
2020/12/20 01:16:29;;;;;;;13.50;7.78;;;7.90;85.50;;;;;;5105383;28;20593;-83
2020/12/20 01:18:55;;;;;;;15.57;7.75;;;7.90;85.20;;;;;;5106319;28;20567;-83
2020/12/20 01:21:21;;;;;;;17.92;6.63;;;7.90;85.80;;;;;;5105312;28;20171;-84
2020/12/20 01:23:47;;;;;;;9.63;6.80;;;7.90;85.80;;;;;;5104759;28;20187;-84
2020/12/20 01:26:14;;;;;;;18.15;8.10;;;7.80;84.90;;;;;;5104681;28;20433;-83
2020/12/20 01:28:39;;;;;;;11.48;7.15;;;7.80;85.10;;;;;;5103681;28;20291;-84
2020/12/20 01:31:07;;;;;;;12.70;7.80;;;7.80;85.10;;;;;;5103702;28;20203;-84
2020/12/20 01:33:36;;;;;;;12.75;6.68;;;7.80;84.80;;;;;;5103493;28;20167;-84
2020/12/20 01:36:13;;;;;;;12.52;6.85;;;7.90;85.30;;;;;;5103445;28;20263;-84
2020/12/20 01:38:39;;;;;;;20.55;8.90;;;7.90;85.30;;;;;;5102997;28;20548;-82
2020/12/20 01:41:06;;;;;;;14.38;6.85;;;7.90;84.50;;;;;;5103414;28;20175;-84
2020/12/20 01:43:50;;;;;;;16.45;7.50;;;7.90;84.20;;;;;;5103170;28;20174;-85
2020/12/20 01:46:17;;;;;;;14.00;6.78;;;7.90;84.50;;;;;;5102977;28;20191;-84
2020/12/20 01:48:44;;;;;;;15.68;7.22;;;7.90;83.90;;;;;;5103862;28;20214;-82
2020/12/20 01:51:11;;;;;;;13.45;6.28;;;7.90;84.90;;;;;;5104065;28;20192;-82
2020/12/20 01:53:39;;;;;;;10.75;6.40;;;7.80;84.60;;;;;;5104560;28;20270;-83
2020/12/20 01:56:05;;;;;;;12.50;6.90;;;7.80;84.80;;;;;;5103784;28;20216;-83
2020/12/20 01:58:36;;;;;;;10.25;6.97;;;7.80;84.80;;;;;;5104551;28;20545;-83
2020/12/20 02:01:04;;;;;;;14.80;7.45;;;7.80;84.90;;;;;;5122109;28;20160;-83
2020/12/20 02:03:31;;;;;;;14.73;8.25;;;7.80;85.60;;;;;;5103308;28;20174;-83
2020/12/20 02:05:57;;;;;;;12.45;7.40;;;7.60;85.20;;;;;;5103890;28;20748;-83
2020/12/20 02:08:25;;;;;;;12.60;6.90;;;7.60;86.20;;;;;;5104012;28;20202;-82
2020/12/20 02:11:07;;;;;;;13.80;8.90;;;7.60;86.00;;;;;;5102700;28;20203;-83
2020/12/20 02:13:33;;;;;;;16.67;8.65;;;7.60;86.40;;;;;;5104524;28;20190;-83
2020/12/20 02:15:59;;;;;;;18.85;8.73;;;7.50;86.00;;;;;;5103536;28;20193;-82
2020/12/20 02:18:25;;;;;;;11.45;7.82;;;7.50;86.70;;;;;;5104368;28;20201;-83
2020/12/20 02:20:52;;;;;;;16.80;7.37;;;7.50;86.40;;;;;;5103276;28;20167;-83
2020/12/20 02:23:19;;;;;;;13.52;7.30;;;7.40;86.60;;;;;;5103884;28;20478;-83
2020/12/20 02:25:44;;;;;;;14.60;7.10;;;7.40;87.00;;;;;;5103378;28;20202;-84
2020/12/20 02:28:10;;;;;;;13.83;7.83;;;7.30;87.30;;;;;;5103506;28;20191;-83
2020/12/20 02:30:36;;;;;;;17.10;7.20;;;7.40;87.60;;;;;;5103121;28;20174;-83
2020/12/20 02:33:02;;;;;;;13.43;7.17;;;7.30;87.30;;;;;;5103354;28;20171;-83
2020/12/20 02:35:27;;;;;;;15.80;7.93;;;7.30;87.70;;;;;;5103904;28;20219;-82
2020/12/20 02:37:53;;;;;;;15.20;7.50;;;7.20;88.40;;;;;;5103112;28;20179;-83
2020/12/20 02:40:19;;;;;;;15.43;8.17;;;7.20;88.40;;;;;;5103529;28;20404;-84
2020/12/20 02:42:45;;;;;;;17.13;8.90;;;7.30;88.50;;;;;;5102814;28;20504;-83
2020/12/20 02:45:10;;;;;;;15.93;8.10;;;7.20;88.40;;;;;;5103940;28;20171;-83
2020/12/20 02:47:36;;;;;;;11.97;6.73;;;7.20;88.70;;;;;;5103346;28;20665;-83
2020/12/20 02:50:02;;;;;;;16.00;7.83;;;7.20;89.20;;;;;;5104219;28;20188;-83
2020/12/20 02:52:28;;;;;;;13.90;7.70;;;7.20;88.70;;;;;;5104727;28;20313;-83
2020/12/20 02:54:53;;;;;;;10.90;6.60;;;7.20;88.70;;;;;;5102784;28;20409;-83
2020/12/20 02:57:19;;;;;;;12.37;7.00;;;7.10;88.40;;;;;;5103615;28;20191;-83
2020/12/20 02:59:45;;;;;;;15.40;7.80;;;7.20;88.50;;;;;;5085918;28;20250;-84
2020/12/20 03:02:10;;;;;;;12.90;6.87;;;7.20;88.70;;;;;;5084406;28;20175;-84
2020/12/20 03:04:36;;;;;;;16.17;7.47;;;7.20;89.10;;;;;;5082728;28;20168;-84
2020/12/20 03:07:02;;;;;;;18.80;7.30;;;7.20;88.50;;;;;;5082438;28;20214;-85
2020/12/20 03:09:28;;;;;;;15.80;7.47;;;7.20;88.10;;;;;;5082288;28;20200;-84
2020/12/20 03:11:53;;;;;;;9.33;6.40;;;7.20;88.40;;;;;;5083234;28;20217;-83
2020/12/20 03:14:19;;;;;;;14.63;8.00;;;7.20;89.10;;;;;;5086573;28;20501;-84
2020/12/20 03:16:45;;;;;;;14.37;6.93;;;7.30;88.80;;;;;;5086721;28;20192;-84
2020/12/20 03:19:10;;;;;;;14.87;8.07;;;7.30;88.90;;;;;;5086400;28;20172;-84
2020/12/20 03:21:36;;;;;;;12.80;7.30;;;7.40;88.70;;;;;;5086868;28;20201;-85
2020/12/20 03:24:02;;;;;;;11.23;6.57;;;7.40;87.70;;;;;;5086134;28;20230;-84
2020/12/20 03:26:28;;;;;;;18.27;7.57;;;7.50;87.30;;;;;;5086437;28;20625;-84
2020/12/20 03:28:54;;;;;;;15.80;8.20;;;7.60;86.90;;;;;;5086906;28;20257;-84
2020/12/20 03:31:23;;;;;;;15.67;7.07;;;7.60;86.70;;;;;;5087052;28;20179;-84
2020/12/20 03:33:49;;;;;;;14.35;7.03;;;7.60;86.90;;;;;;5086281;28;20410;-82
2020/12/20 03:36:14;;;;;;;19.13;7.27;;;7.60;86.40;;;;;;5086461;28;20209;-83
2020/12/20 03:38:40;;;;;;;12.30;6.60;;;7.60;86.30;;;;;;5086233;28;20174;-83
2020/12/20 03:41:06;;;;;;;12.70;7.10;;;7.60;86.30;;;;;;5085048;28;20171;-83
2020/12/20 03:43:31;;;;;;;14.80;7.33;;;7.50;86.90;;;;;;5085838;28;20168;-84
2020/12/20 03:45:59;;;;;;;15.63;7.57;;;7.50;86.70;;;;;;5085442;28;20490;-84
2020/12/20 03:48:25;;;;;;;13.32;6.97;;;7.50;86.90;;;;;;5085410;28;20291;-84
2020/12/20 03:50:51;;;;;;;17.02;8.40;;;7.50;87.60;;;;;;5085568;28;20191;-84
2020/12/20 03:53:17;;;;;;;13.63;7.07;;;7.50;87.60;;;;;;5086229;28;20168;-84
2020/12/20 03:55:42;;;;;;;15.33;7.10;;;7.40;87.60;;;;;;5085269;28;20255;-84
2020/12/20 03:58:08;;;;;;;15.63;7.80;;;7.40;88.10;;;;;;5086054;28;20179;-83
2020/12/20 04:00:34;;;;;;;11.63;7.10;;;7.50;88.50;;;;;;5085434;28;20501;-84
2020/12/20 04:02:59;;;;;;;15.90;9.63;;;7.50;88.00;;;;;;5085979;28;20206;-83
2020/12/20 04:05:25;;;;;;;12.63;7.40;;;7.50;88.70;;;;;;5085574;28;20223;-84
2020/12/20 04:07:51;;;;;;;14.43;8.63;;;7.50;88.80;;;;;;5085669;28;20680;-84
2020/12/20 04:10:17;;;;;;;11.33;6.27;;;7.50;88.90;;;;;;5085829;28;20453;-84
2020/12/20 04:12:42;;;;;;;12.50;6.77;;;7.50;88.50;;;;;;5084854;28;20248;-84
2020/12/20 04:15:08;;;;;;;18.20;8.53;;;7.50;88.50;;;;;;5084870;28;20409;-84
2020/12/20 04:17:34;;;;;;;12.70;7.33;;;7.50;88.70;;;;;;5085583;28;20414;-83
2020/12/20 04:19:59;;;;;;;16.57;7.40;;;7.40;88.50;;;;;;5085107;28;20179;-83
2020/12/20 04:22:25;;;;;;;11.97;7.27;;;7.50;88.80;;;;;;5084663;28;20175;-84
2020/12/20 04:24:51;;;;;;;13.40;7.33;;;7.50;88.40;;;;;;5084714;28;20188;-83
2020/12/20 04:27:17;;;;;;;17.70;8.90;;;7.50;88.30;;;;;;5086151;28;20218;-83
2020/12/20 04:29:42;;;;;;;16.00;7.30;;;7.50;88.10;;;;;;5084987;28;20672;-83
2020/12/20 04:32:09;;;;;;;15.33;7.27;;;7.50;88.30;;;;;;5085546;28;20428;-84
2020/12/20 04:34:34;;;;;;;12.43;7.00;;;7.40;88.50;;;;;;5085454;28;20941;-82
2020/12/20 04:37:00;;;;;;;17.07;8.37;;;7.50;88.40;;;;;;5084651;28;20191;-84
2020/12/20 04:39:26;;;;;;;9.60;6.43;;;7.40;88.30;;;;;;5084459;28;20410;-84
2020/12/20 04:41:52;;;;;;;15.23;6.97;;;7.50;88.30;;;;;;5084455;28;20191;-84
2020/12/20 04:44:18;;;;;;;12.00;7.87;;;7.50;88.40;;;;;;5083534;28;20414;-85
2020/12/20 04:46:44;;;;;;;16.70;7.60;;;7.50;88.80;;;;;;5083752;28;20502;-83
2020/12/20 04:49:12;;;;;;;10.20;6.93;;;7.50;88.80;;;;;;5084228;28;20278;-83
2020/12/20 04:51:39;;;;;;;14.93;6.88;;;7.50;88.40;;;;;;5084725;28;20175;-82
2020/12/20 04:54:06;;;;;;;14.77;7.50;;;7.40;87.80;;;;;;5084645;28;20505;-82
2020/12/20 04:56:36;;;;;;;11.40;6.70;;;7.40;88.70;;;;;;5084949;28;20283;-84
2020/12/20 04:59:04;;;;;;;17.25;8.23;;;7.40;88.30;;;;;;5085455;28;20529;-83
2020/12/20 05:01:30;;;;;;;15.95;6.80;;;7.50;88.10;;;;;;5085600;28;20660;-84
2020/12/20 05:03:56;;;;;;;14.23;7.00;;;7.50;88.50;;;;;;5085999;28;20176;-83
2020/12/20 05:06:22;;;;;;;11.40;7.60;;;7.50;88.00;;;;;;5085407;28;20847;-83
2020/12/20 05:08:48;;;;;;;12.43;7.22;;;7.50;88.10;;;;;;5085702;28;20210;-83
2020/12/20 05:11:38;;;;;;;16.83;8.10;;;7.50;88.30;;;;;;5086189;28;20168;-83
2020/12/20 05:14:07;;;;;;;14.13;6.40;;;7.50;88.00;;;;;;5084425;28;20410;-82
2020/12/20 05:16:39;;;;;;;12.32;6.72;;;7.50;88.40;;;;;;5084347;28;20192;-83
2020/12/20 05:19:07;;;;;;;11.48;6.85;;;7.50;88.00;;;;;;5084978;28;20264;-83
2020/12/20 05:21:33;;;;;;;13.82;7.70;;;7.50;88.00;;;;;;5084498;28;20172;-82
2020/12/20 05:24:00;;;;;;;14.60;7.28;;;7.50;88.30;;;;;;5084203;28;20199;-83
2020/12/20 05:26:30;;;;;;;12.48;7.13;;;7.40;88.10;;;;;;5084677;28;20196;-83
2020/12/20 05:29:10;;;;;;;18.13;8.35;;;7.40;88.10;;;;;;5083835;28;20198;-84
2020/12/20 05:31:37;;;;;;;16.05;8.07;;;7.30;88.50;;;;;;5085208;28;20171;-83
2020/12/20 05:34:04;;;;;;;13.75;6.75;;;7.30;88.40;;;;;;5085130;28;20191;-84
2020/12/20 05:36:30;;;;;;;15.70;7.75;;;7.20;88.80;;;;;;5082857;28;20191;-84
2020/12/20 05:39:15;;;;;;;13.95;7.18;;;7.20;89.60;;;;;;5082909;28;20654;-84
2020/12/20 05:41:41;;;;;;;12.93;7.18;;;7.20;89.80;;;;;;5082469;28;20195;-83
2020/12/20 05:44:24;;;;;;;13.48;7.00;;;7.20;89.80;;;;;;5084891;28;20213;-84
2020/12/20 05:46:51;;;;;;;19.38;7.30;;;7.30;89.80;;;;;;5083026;28;20405;-84
2020/12/20 05:49:23;;;;;;;21.10;7.65;;;7.30;89.50;;;;;;5082614;28;20188;-83
2020/12/20 05:52:06;;;;;;;9.10;5.90;;;7.20;89.50;;;;;;5083602;28;20658;-85
2020/12/20 05:54:42;;;;;;;13.93;7.80;;;7.20;89.80;;;;;;5083785;28;20624;-83
2020/12/20 05:57:18;;;;;;;14.55;7.63;;;7.20;89.90;;;;;;5082522;28;20290;-83
2020/12/20 05:59:51;;;;;;;15.68;7.55;;;7.10;90.10;;;;;;5083292;28;20651;-83
2020/12/20 06:02:17;;;;;;;13.15;7.25;;;7.20;89.60;;;;;;5083237;28;20168;-85
2020/12/20 06:04:44;;;;;;;18.58;8.32;;;7.10;89.80;;;;;;5082278;28;20176;-85
2020/12/20 06:07:12;;;;;;;16.02;7.90;;;7.10;90.10;;;;;;5079514;28;20200;-86
2020/12/20 06:09:54;;;;;;;16.88;7.20;;;7.10;89.60;;;;;;5079550;28;20677;-86
2020/12/20 06:12:22;;;;;;;14.35;8.27;;;7.10;89.20;;;;;;5079584;28;20577;-86
2020/12/20 06:14:49;;;;;;;19.30;7.45;;;7.10;89.60;;;;;;5080068;28;20175;-86
2020/12/20 06:17:16;;;;;;;17.85;7.22;;;7.10;89.10;;;;;;5079860;28;20196;-85
2020/12/20 06:19:54;;;;;;;13.73;7.53;;;7.10;89.40;;;;;;5079212;28;20244;-85
2020/12/20 06:22:21;;;;;;;15.68;8.00;;;7.00;89.20;;;;;;5080084;28;20600;-85
2020/12/20 06:24:52;;;;;;;14.00;7.60;;;7.00;89.90;;;;;;5080118;28;20582;-86
2020/12/20 06:27:20;;;;;;;9.98;6.53;;;7.00;89.80;;;;;;5080308;28;20278;-86
2020/12/20 06:29:49;;;;;;;17.45;7.15;;;6.90;90.10;;;;;;5080384;28;20649;-86
2020/12/20 06:32:19;;;;;;;12.55;6.72;;;6.90;90.10;;;;;;5081391;28;20239;-85
2020/12/20 06:34:45;;;;;;;12.05;6.60;;;7.00;90.10;;;;;;5084196;28;20159;-83
2020/12/20 06:37:12;;;;;;;10.85;6.78;;;6.90;89.90;;;;;;5083435;28;20281;-84
2020/12/20 06:39:42;;;;;;;16.00;6.75;;;7.00;89.90;;;;;;5081101;28;20191;-82
2020/12/20 06:42:08;;;;;;;13.90;5.97;;;7.00;89.80;;;;;;5081227;28;20202;-82
2020/12/20 06:44:34;;;;;;;13.87;7.53;;;7.00;89.80;;;;;;5081187;28;20228;-82
2020/12/20 06:47:00;;;;;;;16.40;6.67;;;7.00;89.80;;;;;;5079987;28;20421;-82
2020/12/20 06:49:40;;;;;;;12.45;7.20;;;7.00;89.90;;;;;;5080457;28;20441;-82
2020/12/20 06:52:28;;;;;;;13.10;6.30;;;7.00;90.10;;;;;;5081299;28;20163;-82
2020/12/20 06:55:02;;;;;;;14.45;6.45;;;7.00;90.20;;;;;;5080724;28;20577;-83
2020/12/20 06:57:28;;;;;;;15.20;7.38;;;6.90;90.50;;;;;;5080957;28;20187;-82
2020/12/20 06:59:53;;;;;;;11.23;6.40;;;6.90;90.40;;;;;;5081038;28;20631;-83
2020/12/20 07:02:42;;;;;;;13.80;7.00;;;7.00;90.10;;;;;;5081157;28;20186;-82
2020/12/20 07:05:40;;;;;;;13.15;6.15;;;6.90;90.50;;;;;;5080385;28;20406;-83
2020/12/20 07:08:10;;;;;;;10.68;6.97;;;7.00;90.50;;;;;;5080956;28;20188;-82
2020/12/20 07:10:44;;;;;;;12.38;6.40;;;7.00;90.50;;;;;;5080773;28;20172;-82
2020/12/20 07:13:11;;;;;;;13.82;6.93;;;6.90;90.20;;;;;;5081253;28;20267;-82
2020/12/20 07:15:51;;;;;;;19.00;7.22;;;7.00;90.30;;;;;;5080812;28;20555;-83
2020/12/20 07:18:55;;;;;;;11.52;6.90;;;7.00;90.20;;;;;;5080346;28;20579;-82
2020/12/20 07:21:24;;;;;;;12.50;6.95;;;6.90;89.60;;;;;;5081322;28;20160;-83
2020/12/20 07:24:02;;;;;;;10.55;5.78;;;6.80;90.30;;;;;;5143584;22;20221;-82
2020/12/20 07:26:28;;;;;;;11.80;6.75;;;6.90;90.10;;;;;;5056493;28;20220;-82
2020/12/20 07:28:58;;;;;;;9.90;6.13;;;7.00;90.10;;;;;;5040006;28;20196;-81
2020/12/20 07:31:24;;;;;;;11.95;6.82;;;7.00;89.60;;;;;;5037395;28;20655;-82
2020/12/20 07:33:51;;;;;;;11.95;6.65;;;7.10;89.60;;;;;;5038269;28;20669;-82
2020/12/20 07:36:20;;;;;;;17.85;7.40;;;7.00;89.50;;;;;;5037943;28;20193;-82
2020/12/20 07:38:46;;;;;;;11.00;7.25;;;7.00;90.10;;;;;;5038328;28;20178;-82
2020/12/20 07:41:12;;;;;;;13.30;7.50;;;7.00;90.40;;;;;;5038663;28;20185;-82
2020/12/20 07:43:39;;;;;;;14.00;7.10;;;7.10;90.40;;;;;;5038330;28;20173;-82
2020/12/20 07:46:07;;;;;;;10.55;6.47;;;7.10;90.30;;;;;;5039546;28;20463;-81
2020/12/20 07:48:34;;;;;;;13.65;6.63;;;7.10;89.90;;;;;;5038242;28;20200;-82
2020/12/20 07:51:32;;;;;;;13.10;7.90;;;7.20;89.50;;;;;;5037115;28;20176;-82
2020/12/20 07:54:00;;;;;;;16.23;7.85;;;7.10;88.80;;;;;;4994577;28;20178;-82
2020/12/20 07:56:33;;;;;;;12.57;6.55;;;7.10;89.40;;;;;;5037132;28;20193;-82
2020/12/20 07:59:10;;;;;;;13.63;7.00;;;7.20;89.20;;;;;;5040076;28;20173;-82
2020/12/20 08:01:38;;;;;;;13.25;7.55;;;7.20;89.10;;;;;;5041088;28;20169;-82
2020/12/20 08:04:08;;;;;;;14.70;8.05;;;7.20;89.50;;;;;;5040370;28;20633;-82
2020/12/20 08:06:51;;;;;;;13.85;6.65;;;7.20;89.40;;;;;;5039944;28;20247;-82
2020/12/20 08:09:20;;;;;;;15.68;7.75;;;7.20;89.40;;;;;;5040256;28;20568;-82
2020/12/20 08:11:47;;;;;;;15.45;7.47;;;7.30;88.90;;;;;;5040470;28;20169;-82
2020/12/20 08:14:21;;;;;;;13.10;7.40;;;7.30;88.90;;;;;;5040386;28;20173;-82
2020/12/20 08:16:50;;;;;;;17.83;8.45;;;7.40;88.70;;;;;;5039502;28;20211;-82
2020/12/20 08:19:16;;;;;;;14.10;7.32;;;7.40;88.40;;;;;;5039892;28;20173;-82
2020/12/20 08:21:48;;;;;;;11.57;6.57;;;7.40;88.40;;;;;;5040766;28;20640;-82
2020/12/20 08:24:15;;;;;;;19.13;8.52;;;7.40;88.90;;;;;;5039592;28;20227;-82
2020/12/20 08:26:42;;;;;;;12.18;6.25;;;7.40;88.40;;;;;;5040085;28;20208;-82
2020/12/20 08:29:12;;;;;;;12.10;6.57;;;7.50;88.40;;;;;;5039385;28;20209;-82
2020/12/20 08:31:38;;;;;;;11.75;6.63;;;7.50;87.70;;;;;;5039321;28;20169;-82
2020/12/20 08:34:18;;;;;;;12.77;6.53;;;7.40;87.70;;;;;;5039045;28;20720;-82
2020/12/20 08:36:45;;;;;;;12.00;6.75;;;7.40;88.10;;;;;;5039574;28;20973;-82
2020/12/20 08:39:13;;;;;;;20.88;8.98;;;7.50;88.40;;;;;;5040004;28;20764;-82
2020/12/20 08:41:39;;;;;;;13.65;7.20;;;7.50;87.70;;;;;;5039469;28;20644;-83
2020/12/20 08:44:14;;;;;;;18.13;8.18;;;7.60;87.40;;;;;;5039522;28;20226;-82
2020/12/20 08:46:44;;;;;;;16.02;7.45;;;7.60;87.40;;;;;;5039217;28;20196;-82
2020/12/20 08:49:11;;;;;;;13.77;7.43;;;7.70;87.30;;;;;;5039080;28;20189;-82
2020/12/20 08:51:37;;;;;;;11.10;6.72;;;7.80;87.30;;;;;;5037807;28;20252;-82
2020/12/20 08:54:03;;;;;;;11.75;6.05;;;7.70;87.30;;;;;;5037710;28;20169;-82
2020/12/20 08:56:29;;;;;;;14.48;7.97;;;7.80;87.10;;;;;;5037264;28;20588;-82
2020/12/20 08:58:58;;;;;;;16.60;6.57;;;7.90;86.60;;;;;;5038646;28;20197;-87
2020/12/20 09:01:26;;;;;;;16.33;7.88;;;8.00;86.60;;;;;;5037719;28;20173;-82
2020/12/20 09:03:54;;;;;;;10.20;6.70;;;8.00;86.70;;;;;;5038026;28;20177;-82
2020/12/20 09:06:19;;;;;;;9.77;6.97;;;7.90;86.70;;;;;;5037421;28;20280;-83
2020/12/20 09:08:45;;;;;;;12.00;7.40;;;7.90;86.90;;;;;;5037051;28;20757;-83
2020/12/20 09:11:25;;;;;;;16.17;7.82;;;8.00;86.30;;;;;;5036260;28;20407;-83
2020/12/20 09:13:50;;;;;;;15.20;8.00;;;8.00;86.40;;;;;;5037120;28;20172;-83
2020/12/20 09:16:19;;;;;;;12.67;7.23;;;8.00;86.60;;;;;;5037413;28;20203;-82
2020/12/20 09:18:45;;;;;;;16.52;7.90;;;8.00;86.30;;;;;;5037081;28;20796;-83
2020/12/20 09:21:11;;;;;;;14.33;7.43;;;8.10;85.80;;;;;;5036492;28;20184;-83
2020/12/20 09:23:36;;;;;;;17.63;7.60;;;8.10;86.20;;;;;;5036626;28;20196;-83
2020/12/20 09:26:04;;;;;;;14.80;7.60;;;8.20;85.50;;;;;;5036405;28;20240;-83
2020/12/20 09:28:32;;;;;;;17.85;8.50;;;8.30;85.30;;;;;;5036686;28;20526;-83
2020/12/20 09:31:00;;;;;;;23.35;7.50;;;8.40;84.80;;;;;;5036746;28;20655;-83
2020/12/20 09:33:29;;;;;;;13.15;6.80;;;8.50;84.10;;;;;;5036567;28;20165;-83
2020/12/20 09:36:08;;;;;;;11.20;7.40;;;8.60;83.80;;;;;;5037518;28;20247;-83
2020/12/20 09:39:01;;;;;;;18.90;7.90;;;8.70;83.50;;;;;;5042050;28;20184;-84
2020/12/20 09:41:29;;;;;;;17.08;8.15;;;8.80;82.80;;;;;;5040311;28;20165;-83
2020/12/20 09:43:56;;;;;;;15.70;8.90;;;8.80;82.70;;;;;;5037712;28;20169;-84
2020/12/20 09:46:24;;;;;;;17.60;8.20;;;8.90;82.80;;;;;;5037666;28;20851;-85
2020/12/20 09:48:51;;;;;;;12.70;7.15;;;9.00;82.80;;;;;;5038348;28;20284;-85
2020/12/20 09:51:18;;;;;;;20.10;10.25;;;9.10;82.40;;;;;;5040508;28;20232;-86
2020/12/20 09:53:44;;;;;;;16.67;8.32;;;9.10;82.40;;;;;;5037813;28;20165;-84
2020/12/20 09:56:10;;;;;;;15.48;8.73;;;9.20;82.00;;;;;;5037121;28;20189;-86
2020/12/20 09:58:35;;;;;;;15.10;7.73;;;9.30;81.40;;;;;;5039611;28;20180;-84
2020/12/20 10:01:01;;;;;;;14.40;7.93;;;9.30;81.00;;;;;;5039881;28;20419;-84
2020/12/20 10:03:29;;;;;;;15.17;7.90;;;9.30;80.90;;;;;;5047519;28;20429;-85
2020/12/20 10:05:57;;;;;;;15.55;8.38;;;9.40;80.60;;;;;;5059367;28;20246;-85
2020/12/20 10:08:24;;;;;;;14.70;8.63;;;9.40;80.80;;;;;;5057258;28;20718;-85
2020/12/20 10:10:54;;;;;;;15.32;7.45;;;9.40;80.50;;;;;;5056560;28;20218;-85
2020/12/20 10:13:21;;;;;;;21.15;9.70;;;9.40;81.20;;;;;;5055427;28;20169;-84
2020/12/20 10:15:47;;;;;;;17.27;8.02;;;9.50;81.00;;;;;;5055329;28;20188;-84
2020/12/20 10:18:13;;;;;;;15.40;7.78;;;9.50;79.90;;;;;;5055444;28;20244;-84
2020/12/20 10:20:39;;;;;;;17.30;7.87;;;9.50;79.50;;;;;;5055434;28;20180;-84
2020/12/20 10:23:05;;;;;;;15.32;7.88;;;9.50;80.10;;;;;;5055200;28;20414;-84
2020/12/20 10:25:30;;;;;;;13.98;8.95;;;9.50;81.20;;;;;;5055131;28;20715;-84
2020/12/20 10:27:57;;;;;;;15.70;8.77;;;9.50;81.00;;;;;;5055546;28;20232;-85
2020/12/20 10:30:23;;;;;;;13.35;7.53;;;9.60;79.90;;;;;;5055770;28;20413;-85
2020/12/20 10:32:50;;;;;;;14.50;7.85;;;9.60;80.10;;;;;;5055236;28;20238;-85
2020/12/20 10:35:23;;;;;;;17.48;9.25;;;9.70;80.60;;;;;;5055185;28;20193;-85
2020/12/20 10:37:52;;;;;;;13.80;8.13;;;9.70;80.20;;;;;;5040236;28;20196;-84
2020/12/20 10:40:18;;;;;;;15.10;8.00;;;9.70;80.30;;;;;;5035561;28;20169;-85
2020/12/20 10:42:46;;;;;;;13.07;8.18;;;9.70;79.90;;;;;;5034962;28;20181;-85
2020/12/20 10:45:12;;;;;;;10.90;7.75;;;9.80;79.40;;;;;;5035165;28;20201;-86
2020/12/20 10:47:38;;;;;;;17.48;8.48;;;9.70;79.40;;;;;;5035142;28;20169;-86
2020/12/20 10:50:05;;;;;;;16.80;8.60;;;9.70;80.20;;;;;;5035193;28;20172;-85
2020/12/20 10:52:30;;;;;;;15.20;7.45;;;9.80;79.40;;;;;;5034953;28;20404;-85
2020/12/20 10:54:56;;;;;;;18.70;8.60;;;9.70;79.90;;;;;;5035512;28;20573;-86
2020/12/20 10:57:22;;;;;;;16.57;9.03;;;9.70;80.10;;;;;;5035541;28;20184;-85
2020/12/20 10:59:47;;;;;;;17.27;9.60;;;9.80;80.10;;;;;;5035310;28;20834;-86
2020/12/20 11:02:13;;;;;;;16.60;8.83;;;9.80;80.60;;;;;;5034979;28;20169;-86
2020/12/20 11:04:39;;;;;;;16.23;8.43;;;9.90;80.30;;;;;;5034955;28;20169;-86
2020/12/20 11:07:05;;;;;;;18.63;9.25;;;9.90;79.40;;;;;;5035254;28;20189;-84
2020/12/20 11:09:31;;;;;;;15.77;8.17;;;10.00;78.90;;;;;;5035123;28;20200;-84
2020/12/20 11:11:57;;;;;;;13.90;8.18;;;10.10;79.90;;;;;;5034886;28;20633;-86
2020/12/20 11:14:23;;;;;;;15.67;9.23;;;10.10;79.50;;;;;;5035192;28;20180;-85
2020/12/20 11:16:53;;;;;;;14.23;8.40;;;10.20;78.80;;;;;;5035191;28;20486;-84
2020/12/20 11:19:20;;;;;;;18.13;8.60;;;10.20;78.90;;;;;;5034797;28;20181;-85
2020/12/20 11:21:47;;;;;;;15.65;9.05;;;10.20;78.30;;;;;;5034979;28;20173;-85
2020/12/20 11:24:14;;;;;;;17.67;8.15;;;10.20;78.00;;;;;;5018883;28;20985;-84
2020/12/20 11:26:42;;;;;;;13.43;8.68;;;10.30;78.10;;;;;;5052672;28;20193;-85
2020/12/20 11:29:08;;;;;;;19.30;8.30;;;10.30;78.30;;;;;;5034818;28;20649;-84
2020/12/20 11:31:34;;;;;;;29.43;8.67;;;10.30;78.70;;;;;;5034514;28;20268;-85
2020/12/20 11:34:00;;;;;;;15.43;8.52;;;10.40;76.90;;;;;;5037117;28;20180;-85
2020/12/20 11:36:26;;;;;;;14.93;7.90;;;10.50;76.40;;;;;;5038413;28;20557;-85
2020/12/20 11:38:52;;;;;;;15.00;8.23;;;10.50;76.40;;;;;;5038602;28;20188;-86
2020/12/20 11:41:22;;;;;;;15.40;7.95;;;10.50;76.20;;;;;;5038114;28;20488;-86
2020/12/20 11:43:48;;;;;;;15.80;8.20;;;10.50;76.60;;;;;;5038507;28;20583;-86
2020/12/20 11:46:14;;;;;;;16.58;8.80;;;10.40;77.10;;;;;;5038468;28;20208;-86
2020/12/20 11:48:40;;;;;;;14.40;7.80;;;10.50;76.90;;;;;;5038125;28;20234;-86
2020/12/20 11:51:11;;;;;;;16.37;8.20;;;10.40;76.60;;;;;;5037978;28;20769;-86
2020/12/20 11:53:37;;;;;;;14.82;7.72;;;10.50;76.40;;;;;;5037994;28;20491;-86
2020/12/20 11:56:07;;;;;;;16.23;7.90;;;10.60;76.40;;;;;;5038038;28;20248;-86
2020/12/20 11:58:33;;;;;;;15.85;7.90;;;10.50;76.40;;;;;;5037949;28;20434;-86
2020/12/20 12:01:00;;;;;;;15.48;7.72;;;10.60;76.20;;;;;;5037628;28;20177;-87
2020/12/20 12:03:26;;;;;;;14.95;8.25;;;10.70;76.60;;;;;;5037721;28;20211;-86
2020/12/20 12:05:52;;;;;;;16.67;8.30;;;10.70;75.80;;;;;;5037647;28;20276;-86
2020/12/20 12:08:18;;;;;;;16.80;8.52;;;10.70;76.30;;;;;;5037590;28;20204;-87
2020/12/20 12:10:49;;;;;;;15.90;8.47;;;10.70;76.30;;;;;;5037588;28;20169;-85
2020/12/20 12:13:15;;;;;;;15.40;8.43;;;10.80;76.60;;;;;;5037519;28;20957;-85
2020/12/20 12:15:42;;;;;;;15.68;9.88;;;10.80;76.70;;;;;;5037477;28;20197;-85
2020/12/20 12:18:08;;;;;;;13.65;7.93;;;10.80;76.00;;;;;;5037436;28;20231;-85
2020/12/20 12:20:34;;;;;;;14.98;8.48;;;10.80;75.90;;;;;;5037642;28;20189;-84
2020/12/20 12:23:00;;;;;;;14.68;8.10;;;10.80;76.20;;;;;;5037103;28;20169;-84
2020/12/20 12:25:26;;;;;;;18.27;8.83;;;10.80;76.30;;;;;;5037137;28;20216;-84
2020/12/20 12:27:52;;;;;;;14.93;7.73;;;10.90;76.60;;;;;;5037343;28;20502;-84
2020/12/20 12:30:18;;;;;;;19.77;9.00;;;11.00;76.40;;;;;;5037285;28;20472;-85
2020/12/20 12:32:43;;;;;;;18.97;9.00;;;11.00;75.60;;;;;;5038041;28;20246;-84
2020/12/20 12:35:10;;;;;;;14.70;8.60;;;11.00;76.30;;;;;;5037232;28;20411;-85
2020/12/20 12:37:36;;;;;;;13.65;7.88;;;11.00;75.10;;;;;;5037136;28;20457;-84
2020/12/20 12:40:04;;;;;;;20.70;10.02;;;11.00;75.50;;;;;;5037201;28;20260;-84
2020/12/20 12:42:30;;;;;;;16.83;8.65;;;11.00;75.80;;;;;;5036723;28;20176;-84
2020/12/20 12:44:56;;;;;;;17.10;8.93;;;11.00;74.60;;;;;;5036967;28;20189;-84
2020/12/20 12:47:22;;;;;;;15.47;8.70;;;11.00;75.90;;;;;;5037034;28;20179;-84
2020/12/20 12:49:48;;;;;;;17.13;9.48;;;11.00;74.90;;;;;;5036777;28;20451;-84